Terminal Aerodrome Forecast
Issued by NWS Portland, OR

Home | Current Version | Previous Version | Text Only | Print | Product List | Glossary On
Versions: 1 2 3 4 5 6 7 8 9 10 11 12 13 14 15 16 17 18 19 20 21 22 23 24 25 26
000
FTUS46 KPQR 291742
TAFHIO
TAF
KHIO 291742Z 2918/3018 28004KT P6SM OVC022
     FM292100 VRB03KT P6SM BKN035 BKN050
     FM300100 32008KT P6SM BKN050
     FM301100 00000KT P6SM OVC022=

USA.gov is the U.S. government's official web portal to all federal, state and local government web resources and services.